sensor_id;sensor_type;location;lat;lon;timestamp;pressure;altitude;pressure_sealevel;temperature;humidity
21980;BME280;11154;48.558;9.234;2023-05-23T00:00:46;97378.50;;;18.10;100.00
21980;BME280;11154;48.558;9.234;2023-05-23T00:02:52;97383.06;;;18.04;100.00
21980;BME280;11154;48.558;9.234;2023-05-23T00:04:54;97376.44;;;18.00;100.00
21980;BME280;11154;48.558;9.234;2023-05-23T00:06:57;97385.75;;;17.97;100.00
21980;BME280;11154;48.558;9.234;2023-05-23T00:08:59;97383.06;;;17.97;100.00
21980;BME280;11154;48.558;9.234;2023-05-23T00:11:00;97385.97;;;17.96;100.00
21980;BME280;11154;48.558;9.234;2023-05-23T00:13:02;97382.47;;;17.95;100.00
21980;BME280;11154;48.558;9.234;2023-05-23T00:15:05;97394.25;;;17.94;100.00
21980;BME280;11154;48.558;9.234;2023-05-23T00:17:09;97386.41;;;17.86;100.00
21980;BME280;11154;48.558;9.234;2023-05-23T00:19:13;97398.41;;;17.90;100.00
21980;BME280;11154;48.558;9.234;2023-05-23T00:21:15;97396.75;;;17.89;100.00
21980;BME280;11154;48.558;9.234;2023-05-23T00:23:17;97396.53;;;17.91;100.00
21980;BME280;11154;48.558;9.234;2023-05-23T00:25:20;97400.91;;;17.92;100.00
21980;BME280;11154;48.558;9.234;2023-05-23T00:27:22;97404.19;;;17.94;100.00
21980;BME280;11154;48.558;9.234;2023-05-23T00:29:23;97400.69;;;17.93;100.00
21980;BME280;11154;48.558;9.234;2023-05-23T00:31:25;97396.75;;;17.96;100.00
21980;BME280;11154;48.558;9.234;2023-05-23T00:33:27;97394.25;;;18.01;100.00
21980;BME280;11154;48.558;9.234;2023-05-23T00:35:30;97396.94;;;18.01;100.00
21980;BME280;11154;48.558;9.234;2023-05-23T00:37:32;97395.50;;;18.05;100.00
21980;BME280;11154;48.558;9.234;2023-05-23T00:39:33;97399.41;;;18.08;100.00
21980;BME280;11154;48.558;9.234;2023-05-23T00:41:35;97393.78;;;18.10;100.00
21980;BME280;11154;48.558;9.234;2023-05-23T00:43:37;97406.63;;;18.14;100.00
21980;BME280;11154;48.558;9.234;2023-05-23T00:45:38;97403.13;;;18.14;100.00
21980;BME280;11154;48.558;9.234;2023-05-23T00:47:41;97395.88;;;18.14;100.00
21980;BME280;11154;48.558;9.234;2023-05-23T00:49:43;97402.06;;;18.15;100.00
21980;BME280;11154;48.558;9.234;2023-05-23T00:51:46;97394.81;;;18.15;100.00
21980;BME280;11154;48.558;9.234;2023-05-23T00:53:49;97398.16;;;18.17;100.00
21980;BME280;11154;48.558;9.234;2023-05-23T00:55:51;97390.25;;;18.16;100.00
21980;BME280;11154;48.558;9.234;2023-05-23T00:57:53;97392.13;;;18.15;100.00
21980;BME280;11154;48.558;9.234;2023-05-23T00:59:56;97397.34;;;18.10;100.00
21980;BME280;11154;48.558;9.234;2023-05-23T01:01:58;97402.50;;;18.06;100.00
21980;BME280;11154;48.558;9.234;2023-05-23T01:04:01;97408.31;;;18.03;100.00
21980;BME280;11154;48.558;9.234;2023-05-23T01:06:03;97412.03;;;18.02;100.00
21980;BME280;11154;48.558;9.234;2023-05-23T01:08:06;97403.34;;;18.00;100.00
21980;BME280;11154;48.558;9.234;2023-05-23T01:10:09;97397.97;;;18.00;100.00
21980;BME280;11154;48.558;9.234;2023-05-23T01:12:17;97402.09;;;18.02;100.00
21980;BME280;11154;48.558;9.234;2023-05-23T01:14:25;97397.56;;;18.03;100.00
21980;BME280;11154;48.558;9.234;2023-05-23T01:16:35;97404.59;;;18.04;100.00
21980;BME280;11154;48.558;9.234;2023-05-23T01:18:45;97406.66;;;18.02;100.00
21980;BME280;11154;48.558;9.234;2023-05-23T01:20:53;97396.34;;;17.99;100.00
21980;BME280;11154;48.558;9.234;2023-05-23T01:23:06;97400.25;;;17.96;100.00
21980;BME280;11154;48.558;9.234;2023-05-23T01:25:23;97405.44;;;17.98;100.00
21980;BME280;11154;48.558;9.234;2023-05-23T01:27:42;97397.97;;;18.00;100.00
21980;BME280;11154;48.558;9.234;2023-05-23T01:29:48;97403.34;;;18.00;100.00
21980;BME280;11154;48.558;9.234;2023-05-23T01:31:56;97405.00;;;18.01;100.00
21980;BME280;11154;48.558;9.234;2023-05-23T01:33:58;97406.88;;;18.00;100.00
21980;BME280;11154;48.558;9.234;2023-05-23T01:36:01;97407.09;;;17.99;100.00
21980;BME280;11154;48.558;9.234;2023-05-23T01:38:03;97402.53;;;17.99;100.00
21980;BME280;11154;48.558;9.234;2023-05-23T01:40:05;97411.41;;;18.00;100.00
21980;BME280;11154;48.558;9.234;2023-05-23T01:42:07;97399.03;;;17.99;100.00
21980;BME280;11154;48.558;9.234;2023-05-23T01:44:10;97410.81;;;17.98;100.00
21980;BME280;11154;48.558;9.234;2023-05-23T01:46:13;97410.41;;;17.94;100.00
21980;BME280;11154;48.558;9.234;2023-05-23T01:48:16;97403.78;;;17.97;100.00
21980;BME280;11154;48.558;9.234;2023-05-23T01:50:19;97402.75;;;17.98;100.00
21980;BME280;11154;48.558;9.234;2023-05-23T01:52:21;97401.09;;;17.97;100.00
21980;BME280;11154;48.558;9.234;2023-05-23T01:54:23;97400.25;;;17.96;100.00
21980;BME280;11154;48.558;9.234;2023-05-23T01:56:26;97403.78;;;17.97;100.00
21980;BME280;11154;48.558;9.234;2023-05-23T01:58:28;97404.41;;;17.92;100.00
21980;BME280;11154;48.558;9.234;2023-05-23T02:00:31;97401.72;;;17.92;100.00
21980;BME280;11154;48.558;9.234;2023-05-23T02:02:33;97408.75;;;17.93;100.00
21980;BME280;11154;48.558;9.234;2023-05-23T02:04:34;97405.84;;;17.95;100.00
21980;BME280;11154;48.558;9.234;2023-05-23T02:06:36;97410.59;;;17.93;100.00
21980;BME280;11154;48.558;9.234;2023-05-23T02:08:37;97407.91;;;17.93;100.00
21980;BME280;11154;48.558;9.234;2023-05-23T02:10:39;97412.69;;;17.91;100.00
21980;BME280;11154;48.558;9.234;2023-05-23T02:12:41;97412.91;;;17.89;100.00
21980;BME280;11154;48.558;9.234;2023-05-23T02:14:42;97413.72;;;17.90;100.00
21980;BME280;11154;48.558;9.234;2023-05-23T02:16:45;97412.06;;;17.89;100.00
21980;BME280;11154;48.558;9.234;2023-05-23T02:18:47;97417.66;;;17.87;100.00
21980;BME280;11154;48.558;9.234;2023-05-23T02:20:51;97421.16;;;17.88;100.00
21980;BME280;11154;48.558;9.234;2023-05-23T02:22:53;97423.84;;;17.88;100.00
21980;BME280;11154;48.558;9.234;2023-05-23T02:24:55;97422.63;;;17.97;100.00
21980;BME280;11154;48.558;9.234;2023-05-23T02:26:56;97410.81;;;17.98;100.00
21980;BME280;11154;48.558;9.234;2023-05-23T02:28:58;97412.47;;;17.99;100.00
21980;BME280;11154;48.558;9.234;2023-05-23T02:31:00;97410.59;;;17.99;100.00
21980;BME280;11154;48.558;9.234;2023-05-23T02:33:05;97407.09;;;17.99;100.00
21980;BME280;11154;48.558;9.234;2023-05-23T02:35:07;97411.63;;;17.98;100.00
21980;BME280;11154;48.558;9.234;2023-05-23T02:37:09;97409.78;;;17.99;100.00
21980;BME280;11154;48.558;9.234;2023-05-23T02:39:11;97410.81;;;17.98;100.00
21980;BME280;11154;48.558;9.234;2023-05-23T02:41:12;97421.59;;;17.98;100.00
21980;BME280;11154;48.558;9.234;2023-05-23T02:43:14;97424.28;;;17.98;100.00
21980;BME280;11154;48.558;9.234;2023-05-23T02:45:16;97420.31;;;17.94;100.00
21980;BME280;11154;48.558;9.234;2023-05-23T02:47:17;97417.03;;;17.92;100.00
21980;BME280;11154;48.558;9.234;2023-05-23T02:49:20;97419.72;;;17.92;100.00
21980;BME280;11154;48.558;9.234;2023-05-23T02:51:22;97421.56;;;17.91;100.00
21980;BME280;11154;48.558;9.234;2023-05-23T02:53:24;97414.53;;;17.90;100.00
21980;BME280;11154;48.558;9.234;2023-05-23T02:55:26;97408.75;;;17.87;100.00
21980;BME280;11154;48.558;9.234;2023-05-23T02:57:28;97412.28;;;17.87;100.00
21980;BME280;11154;48.558;9.234;2023-05-23T02:59:29;97411.44;;;17.87;100.00
21980;BME280;11154;48.558;9.234;2023-05-23T03:01:31;97411.66;;;17.85;100.00
21980;BME280;11154;48.558;9.234;2023-05-23T03:03:33;97410.00;;;17.84;100.00
21980;BME280;11154;48.558;9.234;2023-05-23T03:05:36;97406.50;;;17.84;100.00
21980;BME280;11154;48.558;9.234;2023-05-23T03:07:38;97415.81;;;17.81;100.00
21980;BME280;11154;48.558;9.234;2023-05-23T03:09:39;97409.59;;;17.81;100.00
21980;BME280;11154;48.558;9.234;2023-05-23T03:11:41;97405.84;;;17.82;100.00
21980;BME280;11154;48.558;9.234;2023-05-23T03:13:43;97416.44;;;17.77;100.00
21980;BME280;11154;48.558;9.234;2023-05-23T03:15:45;97410.22;;;17.76;100.00
21980;BME280;11154;48.558;9.234;2023-05-23T03:17:46;97416.22;;;17.78;100.00
21980;BME280;11154;48.558;9.234;2023-05-23T03:19:48;97416.03;;;17.80;100.00
21980;BME280;11154;48.558;9.234;2023-05-23T03:21:51;97412.50;;;17.79;100.00
21980;BME280;11154;48.558;9.234;2023-05-23T03:23:53;97416.22;;;17.78;100.00
21980;BME280;11154;48.558;9.234;2023-05-23T03:25:54;97411.25;;;17.75;100.00
21980;BME280;11154;48.558;9.234;2023-05-23T03:27:56;97425.53;;;17.76;100.00
21980;BME280;11154;48.558;9.234;2023-05-23T03:29:57;97421.00;;;17.76;100.00
21980;BME280;11154;48.558;9.234;2023-05-23T03:31:59;97420.38;;;17.74;100.00
21980;BME280;11154;48.558;9.234;2023-05-23T03:34:01;97426.16;;;17.71;100.00
21980;BME280;11154;48.558;9.234;2023-05-23T03:36:05;97425.97;;;17.73;100.00
21980;BME280;11154;48.558;9.234;2023-05-23T03:38:08;97427.59;;;17.74;100.00
21980;BME280;11154;48.558;9.234;2023-05-23T03:40:09;97427.00;;;17.72;100.00
21980;BME280;11154;48.558;9.234;2023-05-23T03:42:11;97426.78;;;17.73;100.00
21980;BME280;11154;48.558;9.234;2023-05-23T03:44:12;97433.41;;;17.71;100.00
21980;BME280;11154;48.558;9.234;2023-05-23T03:46:15;97435.47;;;17.69;100.00
21980;BME280;11154;48.558;9.234;2023-05-23T03:48:16;97436.72;;;17.73;100.00
21980;BME280;11154;48.558;9.234;2023-05-23T03:50:18;97439.41;;;17.73;100.00
21980;BME280;11154;48.558;9.234;2023-05-23T03:52:20;97442.69;;;17.75;100.00
21980;BME280;11154;48.558;9.234;2023-05-23T03:54:23;97436.91;;;17.78;100.00
21980;BME280;11154;48.558;9.234;2023-05-23T03:56:24;97445.63;;;17.80;100.00
21980;BME280;11154;48.558;9.234;2023-05-23T03:58:26;97443.97;;;17.79;100.00
21980;BME280;11154;48.558;9.234;2023-05-23T04:00:28;97441.28;;;17.79;100.00
21980;BME280;11154;48.558;9.234;2023-05-23T04:02:29;97435.25;;;17.77;100.00
21980;BME280;11154;48.558;9.234;2023-05-23T04:04:31;97433.59;;;17.76;100.00
21980;BME280;11154;48.558;9.234;2023-05-23T04:06:33;97438.13;;;17.95;100.00
21980;BME280;11154;48.558;9.234;2023-05-23T04:08:35;97439.16;;;18.07;100.00
21980;BME280;11154;48.558;9.234;2023-05-23T04:10:38;97442.06;;;18.05;100.00
21980;BME280;11154;48.558;9.234;2023-05-23T04:12:39;97439.16;;;18.07;100.00
21980;BME280;11154;48.558;9.234;2023-05-23T04:14:42;97439.38;;;18.11;100.00
21980;BME280;11154;48.558;9.234;2023-05-23T04:16:43;97441.00;;;18.12;100.00
21980;BME280;11154;48.558;9.234;2023-05-23T04:18:45;97438.94;;;18.14;100.00
21980;BME280;11154;48.558;9.234;2023-05-23T04:20:48;97439.56;;;18.16;100.00
21980;BME280;11154;48.558;9.234;2023-05-23T04:22:49;97432.06;;;18.18;100.00
21980;BME280;11154;48.558;9.234;2023-05-23T04:24:51;97435.63;;;18.19;100.00
21980;BME280;11154;48.558;9.234;2023-05-23T04:26:54;97424.44;;;18.22;100.00
21980;BME280;11154;48.558;9.234;2023-05-23T04:28:56;97438.75;;;18.22;100.00
21980;BME280;11154;48.558;9.234;2023-05-23T04:30:58;97441.00;;;18.25;100.00
21980;BME280;11154;48.558;9.234;2023-05-23T04:33:02;97443.69;;;18.25;100.00
21980;BME280;11154;48.558;9.234;2023-05-23T04:35:04;97434.59;;;18.26;100.00
21980;BME280;11154;48.558;9.234;2023-05-23T04:37:06;97436.88;;;18.04;100.00
21980;BME280;11154;48.558;9.234;2023-05-23T04:39:08;97441.44;;;17.97;100.00
21980;BME280;11154;48.558;9.234;2023-05-23T04:41:10;97435.44;;;17.95;100.00
21980;BME280;11154;48.558;9.234;2023-05-23T04:43:13;97443.50;;;17.95;100.00
21980;BME280;11154;48.558;9.234;2023-05-23T04:45:15;97441.03;;;17.93;100.00
21980;BME280;11154;48.558;9.234;2023-05-23T04:47:18;97444.97;;;17.91;100.00
21980;BME280;11154;48.558;9.234;2023-05-23T04:49:20;97442.88;;;17.93;100.00
21980;BME280;11154;48.558;9.234;2023-05-23T04:51:22;97444.53;;;17.94;100.00
21980;BME280;11154;48.558;9.234;2023-05-23T04:53:24;97440.59;;;17.96;100.00
21980;BME280;11154;48.558;9.234;2023-05-23T04:55:26;97448.50;;;17.98;100.00
21980;BME280;11154;48.558;9.234;2023-05-23T04:57:27;97452.00;;;17.98;100.00
21980;BME280;11154;48.558;9.234;2023-05-23T04:59:30;97454.06;;;18.03;100.00
21980;BME280;11154;48.558;9.234;2023-05-23T05:01:32;97457.78;;;18.08;100.00
21980;BME280;11154;48.558;9.234;2023-05-23T05:03:33;97464.19;;;18.13;100.00
21980;BME280;11154;48.558;9.234;2023-05-23T05:05:35;97462.13;;;18.15;100.00
21980;BME280;11154;48.558;9.234;2023-05-23T05:07:37;97467.06;;;18.18;100.00
21980;BME280;11154;48.558;9.234;2023-05-23T05:09:39;97464.59;;;18.17;100.00
21980;BME280;11154;48.558;9.234;2023-05-23T05:11:41;97462.75;;;18.17;100.00
21980;BME280;11154;48.558;9.234;2023-05-23T05:13:43;97462.94;;;18.16;100.00
21980;BME280;11154;48.558;9.234;2023-05-23T05:15:46;97460.47;;;18.14;100.00
21980;BME280;11154;48.558;9.234;2023-05-23T05:17:48;97464.63;;;18.10;100.00
21980;BME280;11154;48.558;9.234;2023-05-23T05:19:49;97465.88;;;18.08;100.00
21980;BME280;11154;48.558;9.234;2023-05-23T05:21:51;97460.50;;;18.08;100.00
21980;BME280;11154;48.558;9.234;2023-05-23T05:23:53;97469.16;;;18.10;100.00
21980;BME280;11154;48.558;9.234;2023-05-23T05:25:55;97463.38;;;18.13;100.00
21980;BME280;11154;48.558;9.234;2023-05-23T05:27:56;97468.31;;;18.16;100.00
21980;BME280;11154;48.558;9.234;2023-05-23T05:29:58;97474.56;;;18.16;100.00
21980;BME280;11154;48.558;9.234;2023-05-23T05:32:05;97472.44;;;18.18;100.00
21980;BME280;11154;48.558;9.234;2023-05-23T05:34:08;97468.75;;;18.19;100.00
21980;BME280;11154;48.558;9.234;2023-05-23T05:36:10;97472.09;;;18.21;100.00
21980;BME280;11154;48.558;9.234;2023-05-23T05:38:12;97468.94;;;18.24;100.00
21980;BME280;11154;48.558;9.234;2023-05-23T05:40:14;97468.13;;;18.30;100.00
21980;BME280;11154;48.558;9.234;2023-05-23T05:42:15;97476.59;;;18.34;100.00
21980;BME280;11154;48.558;9.234;2023-05-23T05:44:17;97480.75;;;18.36;100.00
21980;BME280;11154;48.558;9.234;2023-05-23T05:46:18;97486.13;;;18.43;100.00
21980;BME280;11154;48.558;9.234;2023-05-23T05:48:21;97483.00;;;18.46;100.00
21980;BME280;11154;48.558;9.234;2023-05-23T05:50:23;97487.56;;;18.45;100.00
21980;BME280;11154;48.558;9.234;2023-05-23T05:52:25;97483.81;;;18.46;100.00
21980;BME280;11154;48.558;9.234;2023-05-23T05:54:26;97491.69;;;18.48;100.00
21980;BME280;11154;48.558;9.234;2023-05-23T05:56:28;97490.03;;;18.47;100.00
21980;BME280;11154;48.558;9.234;2023-05-23T05:58:30;97495.41;;;18.47;100.00
21980;BME280;11154;48.558;9.234;2023-05-23T06:00:33;97487.34;;;18.47;100.00
21980;BME280;11154;48.558;9.234;2023-05-23T06:02:41;97487.97;;;18.49;100.00
21980;BME280;11154;48.558;9.234;2023-05-23T06:04:44;97482.75;;;18.54;100.00
21980;BME280;11154;48.558;9.234;2023-05-23T06:06:46;97482.97;;;18.52;100.00
21980;BME280;11154;48.558;9.234;2023-05-23T06:08:47;97489.22;;;18.53;100.00
21980;BME280;11154;48.558;9.234;2023-05-23T06:10:49;97485.25;;;18.55;100.00
21980;BME280;11154;48.558;9.234;2023-05-23T06:12:51;97487.13;;;18.61;100.00
21980;BME280;11154;48.558;9.234;2023-05-23T06:14:52;97484.59;;;18.66;100.00
21980;BME280;11154;48.558;9.234;2023-05-23T06:16:54;97489.78;;;18.68;100.00
21980;BME280;11154;48.558;9.234;2023-05-23T06:18:56;97493.09;;;18.70;100.00
21980;BME280;11154;48.558;9.234;2023-05-23T06:20:59;97498.25;;;18.78;100.00
21980;BME280;11154;48.558;9.234;2023-05-23T06:23:00;97497.00;;;18.80;100.00
21980;BME280;11154;48.558;9.234;2023-05-23T06:25:05;97492.19;;;18.82;100.00
21980;BME280;11154;48.558;9.234;2023-05-23T06:27:07;97502.78;;;18.83;100.00
21980;BME280;11154;48.558;9.234;2023-05-23T06:29:09;97491.78;;;18.85;100.00
21980;BME280;11154;48.558;9.234;2023-05-23T06:31:10;97484.97;;;18.83;100.00
21980;BME280;11154;48.558;9.234;2023-05-23T06:33:12;97496.34;;;18.84;100.00
21980;BME280;11154;48.558;9.234;2023-05-23T06:35:14;97495.09;;;18.87;100.00
21980;BME280;11154;48.558;9.234;2023-05-23T06:37:18;97497.34;;;18.90;100.00
21980;BME280;11154;48.558;9.234;2023-05-23T06:39:19;97503.78;;;18.89;100.00
21980;BME280;11154;48.558;9.234;2023-05-23T06:41:21;97509.16;;;18.89;100.00
21980;BME280;11154;48.558;9.234;2023-05-23T06:43:23;97508.34;;;18.88;100.00
21980;BME280;11154;48.558;9.234;2023-05-23T06:45:25;97505.44;;;18.90;100.00
21980;BME280;11154;48.558;9.234;2023-05-23T06:47:26;97503.38;;;18.92;100.00
21980;BME280;11154;48.558;9.234;2023-05-23T06:49:28;97500.44;;;19.00;100.00
21980;BME280;11154;48.558;9.234;2023-05-23T06:51:31;97502.91;;;18.95;100.00
21980;BME280;11154;48.558;9.234;2023-05-23T06:53:34;97502.72;;;18.96;100.00
21980;BME280;11154;48.558;9.234;2023-05-23T06:55:35;97513.91;;;19.00;100.00
21980;BME280;11154;48.558;9.234;2023-05-23T06:57:37;97505.38;;;19.03;100.00
21980;BME280;11154;48.558;9.234;2023-05-23T06:59:38;97513.47;;;19.03;100.00
21980;BME280;11154;48.558;9.234;2023-05-23T07:01:40;97513.47;;;19.03;100.00
21980;BME280;11154;48.558;9.234;2023-05-23T07:03:42;97517.00;;;19.03;100.00
21980;BME280;11154;48.558;9.234;2023-05-23T07:05:45;97527.78;;;19.03;100.00
21980;BME280;11154;48.558;9.234;2023-05-23T07:07:46;97524.06;;;18.98;100.00
21980;BME280;11154;48.558;9.234;2023-05-23T07:09:49;97523.22;;;18.97;100.00
21980;BME280;11154;48.558;9.234;2023-05-23T07:11:51;97532.38;;;18.96;100.00
21980;BME280;11154;48.558;9.234;2023-05-23T07:13:52;97531.72;;;19.01;100.00
21980;BME280;11154;48.558;9.234;2023-05-23T07:15:54;97522.81;;;19.00;100.00
21980;BME280;11154;48.558;9.234;2023-05-23T07:17:56;97534.41;;;19.01;100.00
21980;BME280;11154;48.558;9.234;2023-05-23T07:19:58;97533.19;;;18.97;100.00
21980;BME280;11154;48.558;9.234;2023-05-23T07:22:02;97527.19;;;18.95;100.00
21980;BME280;11154;48.558;9.234;2023-05-23T07:24:04;97535.66;;;18.98;100.00
21980;BME280;11154;48.558;9.234;2023-05-23T07:26:07;97532.16;;;18.98;100.00
21980;BME280;11154;48.558;9.234;2023-05-23T07:28:12;97531.94;;;18.99;100.00
21980;BME280;11154;48.558;9.234;2023-05-23T07:30:14;97543.13;;;19.03;100.00
21980;BME280;11154;48.558;9.234;2023-05-23T07:32:16;97535.47;;;19.00;100.00
21980;BME280;11154;48.558;9.234;2023-05-23T07:34:17;97547.69;;;19.02;100.00
21980;BME280;11154;48.558;9.234;2023-05-23T07:36:19;97546.44;;;19.05;100.00
21980;BME280;11154;48.558;9.234;2023-05-23T07:38:21;97547.88;;;19.07;100.00
21980;BME280;11154;48.558;9.234;2023-05-23T07:40:23;97553.09;;;19.09;100.00
21980;BME280;11154;48.558;9.234;2023-05-23T07:42:26;97549.75;;;19.07;100.00
21980;BME280;11154;48.558;9.234;2023-05-23T07:44:28;97549.13;;;19.05;100.00
21980;BME280;11154;48.558;9.234;2023-05-23T07:46:30;97551.22;;;19.09;100.00
21980;BME280;11154;48.558;9.234;2023-05-23T07:48:32;97551.81;;;19.11;100.00
21980;BME280;11154;48.558;9.234;2023-05-23T07:50:33;97545.19;;;19.07;100.00
21980;BME280;11154;48.558;9.234;2023-05-23T07:52:36;97548.09;;;19.12;100.00
21980;BME280;11154;48.558;9.234;2023-05-23T07:54:38;97542.31;;;19.09;100.00
21980;BME280;11154;48.558;9.234;2023-05-23T07:56:41;97550.16;;;19.04;100.00
21980;BME280;11154;48.558;9.234;2023-05-23T07:58:44;97549.56;;;19.08;100.00
21980;BME280;11154;48.558;9.234;2023-05-23T08:00:45;97557.63;;;19.02;100.00
21980;BME280;11154;48.558;9.234;2023-05-23T08:02:48;97552.69;;;18.99;100.00
21980;BME280;11154;48.558;9.234;2023-05-23T08:04:50;97551.03;;;18.98;100.00
21980;BME280;11154;48.558;9.234;2023-05-23T08:06:52;97562.66;;;18.92;100.00
21980;BME280;11154;48.558;9.234;2023-05-23T08:08:57;97559.78;;;18.87;100.00
21980;BME280;11154;48.558;9.234;2023-05-23T08:10:59;97562.88;;;18.84;100.00
21980;BME280;11154;48.558;9.234;2023-05-23T08:13:00;97564.75;;;18.83;100.00
21980;BME280;11154;48.558;9.234;2023-05-23T08:15:08;97563.50;;;18.80;100.00
21980;BME280;11154;48.558;9.234;2023-05-23T08:17:14;97556.72;;;18.71;100.00
21980;BME280;11154;48.558;9.234;2023-05-23T08:19:15;97566.88;;;18.75;100.00
21980;BME280;11154;48.558;9.234;2023-05-23T08:21:17;97562.69;;;18.79;100.00
21980;BME280;11154;48.558;9.234;2023-05-23T08:23:19;97569.94;;;18.79;100.00
21980;BME280;11154;48.558;9.234;2023-05-23T08:25:20;97576.38;;;18.78;100.00
21980;BME280;11154;48.558;9.234;2023-05-23T08:27:23;97575.53;;;18.77;100.00
21980;BME280;11154;48.558;9.234;2023-05-23T08:29:25;97570.59;;;18.74;100.00
21980;BME280;11154;48.558;9.234;2023-05-23T08:31:28;97578.44;;;18.76;100.00
21980;BME280;11154;48.558;9.234;2023-05-23T08:33:30;97587.75;;;18.80;100.00
21980;BME280;11154;48.558;9.234;2023-05-23T08:35:32;97583.63;;;18.77;100.00
21980;BME280;11154;48.558;9.234;2023-05-23T08:37:35;97587.34;;;18.76;100.00
21980;BME280;11154;48.558;9.234;2023-05-23T08:39:37;97588.81;;;18.72;100.00
21980;BME280;11154;48.558;9.234;2023-05-23T08:41:39;97581.16;;;18.69;100.00
21980;BME280;11154;48.558;9.234;2023-05-23T08:43:40;97596.91;;;18.72;100.00
21980;BME280;11154;48.558;9.234;2023-05-23T08:45:42;97592.13;;;18.68;100.00
21980;BME280;11154;48.558;9.234;2023-05-23T08:47:46;97597.53;;;18.68;100.00
21980;BME280;11154;48.558;9.234;2023-05-23T08:49:51;97598.78;;;18.65;100.00
21980;BME280;11154;48.558;9.234;2023-05-23T08:52:00;97597.34;;;18.63;100.00
21980;BME280;11154;48.558;9.234;2023-05-23T08:54:03;97610.00;;;18.62;100.00
21980;BME280;11154;48.558;9.234;2023-05-23T08:56:05;97612.47;;;18.64;100.00
21980;BME280;11154;48.558;9.234;2023-05-23T08:58:09;97614.13;;;18.65;100.00
21980;BME280;11154;48.558;9.234;2023-05-23T09:00:13;97613.72;;;18.61;100.00
21980;BME280;11154;48.558;9.234;2023-05-23T09:02:16;97614.13;;;18.58;100.00
21980;BME280;11154;48.558;9.234;2023-05-23T09:04:20;97621.81;;;18.61;100.00
21980;BME280;11154;48.558;9.234;2023-05-23T09:06:21;97620.13;;;18.60;100.00
21980;BME280;11154;48.558;9.234;2023-05-23T09:08:23;97623.25;;;18.64;100.00
21980;BME280;11154;48.558;9.234;2023-05-23T09:10:26;97621.16;;;18.59;100.00
21980;BME280;11154;48.558;9.234;2023-05-23T09:12:29;97627.59;;;18.65;100.00
21980;BME280;11154;48.558;9.234;2023-05-23T09:14:32;97620.97;;;18.67;100.00
21980;BME280;11154;48.558;9.234;2023-05-23T09:16:36;97628.84;;;18.62;100.00
21980;BME280;11154;48.558;9.234;2023-05-23T09:18:39;97634.41;;;18.61;100.00
21980;BME280;11154;48.558;9.234;2023-05-23T09:20:44;97633.38;;;18.62;100.00
21980;BME280;11154;48.558;9.234;2023-05-23T09:22:46;97639.41;;;18.57;100.00
21980;BME280;11154;48.558;9.234;2023-05-23T09:24:49;97637.72;;;18.56;100.00
21980;BME280;11154;48.558;9.234;2023-05-23T09:26:51;97636.28;;;18.54;100.00
21980;BME280;11154;48.558;9.234;2023-05-23T09:28:56;97643.13;;;18.56;100.00
21980;BME280;11154;48.558;9.234;2023-05-23T09:30:58;97641.50;;;18.55;100.00
21980;BME280;11154;48.558;9.234;2023-05-23T09:33:00;97647.06;;;18.60;100.00
21980;BME280;11154;48.558;9.234;2023-05-23T09:35:02;97641.69;;;18.60;100.00
21980;BME280;11154;48.558;9.234;2023-05-23T09:37:06;97642.94;;;18.58;100.00
21980;BME280;11154;48.558;9.234;2023-05-23T09:39:10;97646.03;;;18.55;100.00
21980;BME280;11154;48.558;9.234;2023-05-23T09:41:12;97648.50;;;18.56;100.00
21980;BME280;11154;48.558;9.234;2023-05-23T09:43:16;97648.09;;;18.59;100.00
21980;BME280;11154;48.558;9.234;2023-05-23T09:45:17;97642.72;;;18.59;100.00
21980;BME280;11154;48.558;9.234;2023-05-23T09:47:19;97650.19;;;18.64;100.00
21980;BME280;11154;48.558;9.234;2023-05-23T09:49:21;97648.91;;;18.60;100.00
21980;BME280;11154;48.558;9.234;2023-05-23T09:51:23;97655.16;;;18.60;100.00
21980;BME280;11154;48.558;9.234;2023-05-23T09:53:26;97651.84;;;18.58;100.00
21980;BME280;11154;48.558;9.234;2023-05-23T09:55:28;97657.66;;;18.55;100.00
21980;BME280;11154;48.558;9.234;2023-05-23T09:57:30;97657.22;;;18.58;100.00
21980;BME280;11154;48.558;9.234;2023-05-23T09:59:34;97660.13;;;18.57;100.00
21980;BME280;11154;48.558;9.234;2023-05-23T10:01:38;97652.25;;;18.49;100.00
21980;BME280;11154;48.558;9.234;2023-05-23T10:03:44;97659.09;;;18.51;100.00
21980;BME280;11154;48.558;9.234;2023-05-23T10:05:50;97661.97;;;18.56;100.00
21980;BME280;11154;48.558;9.234;2023-05-23T10:07:54;97660.13;;;18.57;100.00
21980;BME280;11154;48.558;9.234;2023-05-23T10:10:02;97661.19;;;18.62;100.00
21980;BME280;11154;48.558;9.234;2023-05-23T10:14:51;97661.34;;;18.61;100.00
21980;BME280;11154;48.558;9.234;2023-05-23T10:17:01;97659.69;;;18.60;100.00
21980;BME280;11154;48.558;9.234;2023-05-23T10:19:06;97662.22;;;18.61;100.00
21980;BME280;11154;48.558;9.234;2023-05-23T10:21:11;97659.09;;;18.64;100.00
21980;BME280;11154;48.558;9.234;2023-05-23T10:23:15;97659.72;;;18.66;100.00
21980;BME280;11154;48.558;9.234;2023-05-23T10:25:19;97663.84;;;18.69;100.00
21980;BME280;11154;48.558;9.234;2023-05-23T10:27:21;97662.41;;;18.66;100.00
21980;BME280;11154;48.558;9.234;2023-05-23T10:29:24;97663.22;;;18.73;100.00
21980;BME280;11154;48.558;9.234;2023-05-23T10:31:26;97669.44;;;18.74;100.00
21980;BME280;11154;48.558;9.234;2023-05-23T10:33:29;97672.75;;;18.82;100.00
21980;BME280;11154;48.558;9.234;2023-05-23T10:35:41;97665.06;;;18.85;100.00
21980;BME280;11154;48.558;9.234;2023-05-23T10:37:54;97663.63;;;18.83;100.00
21980;BME280;11154;48.558;9.234;2023-05-23T10:40:01;97660.94;;;18.83;100.00
21980;BME280;11154;48.558;9.234;2023-05-23T10:42:10;97660.53;;;18.86;100.00
21980;BME280;11154;48.558;9.234;2023-05-23T10:44:22;97654.31;;;18.79;100.00